createdAt,value
2018-03-02T00:00:08.314Z,46.06
2018-03-02T00:01:08.322Z,46.14
2018-03-02T00:02:08.317Z,46.01
2018-03-02T00:03:08.324Z,46.12
2018-03-02T00:04:08.497Z,46.1
2018-03-02T00:05:08.337Z,46.21
2018-03-02T00:06:08.335Z,46.28
2018-03-02T00:07:08.351Z,46.32
2018-03-02T00:08:08.346Z,46.28
2018-03-02T00:09:08.371Z,46.28
2018-03-02T00:10:08.358Z,46.3
2018-03-02T00:11:08.353Z,46.4
2018-03-02T00:12:08.345Z,46.63
2018-03-02T00:13:08.346Z,46.53
2018-03-02T00:14:08.342Z,46.56
2018-03-02T00:15:08.367Z,46.76
2018-03-02T00:16:08.347Z,46.67
2018-03-02T00:17:08.375Z,46.71
2018-03-02T00:18:08.357Z,46.79
2018-03-02T00:19:08.364Z,46.95
2018-03-02T00:20:08.361Z,46.99
2018-03-02T00:21:08.533Z,46.93
2018-03-02T00:22:08.660Z,47.02
2018-03-02T00:23:08.364Z,47.2
2018-03-02T00:24:08.369Z,47.13
2018-03-02T00:25:08.367Z,47.22
2018-03-02T00:26:08.364Z,47.18
2018-03-02T00:27:08.389Z,47.28
2018-03-02T00:28:08.378Z,47.24
2018-03-02T00:29:08.380Z,47.26
2018-03-02T00:30:08.388Z,47.35
2018-03-02T00:31:08.542Z,47.34
2018-03-02T00:32:08.546Z,47.27
2018-03-02T00:33:08.385Z,47.24
2018-03-02T00:34:08.381Z,47.2
2018-03-02T00:35:08.423Z,47.31
2018-03-02T00:36:08.388Z,47.41
2018-03-02T00:37:08.401Z,47.43
2018-03-02T00:38:08.387Z,47.5
2018-03-02T00:39:08.397Z,47.48
2018-03-02T00:40:08.418Z,47.66
2018-03-02T00:41:08.407Z,47.64
2018-03-02T00:42:08.399Z,47.69
2018-03-02T00:43:08.407Z,47.62
2018-03-02T00:44:08.413Z,47.68
2018-03-02T00:45:08.408Z,47.84
2018-03-02T00:46:08.648Z,47.72
2018-03-02T00:47:08.422Z,47.75
2018-03-02T00:48:08.449Z,47.75
2018-03-02T00:49:09.434Z,47.91
2018-03-02T00:50:08.422Z,47.9
2018-03-02T00:51:08.452Z,47.93
2018-03-02T00:52:08.435Z,47.92
2018-03-02T00:53:08.437Z,47.95
2018-03-02T00:54:08.444Z,47.91
2018-03-02T00:55:08.451Z,47.8
2018-03-02T00:56:08.455Z,47.88
2018-03-02T00:57:08.445Z,47.94
2018-03-02T00:58:08.453Z,48.14
2018-03-02T00:59:08.455Z,48.06
2018-03-02T01:00:08.457Z,47.93
2018-03-02T01:01:08.453Z,48.14
2018-03-02T01:02:08.896Z,48.05
2018-03-02T01:03:08.472Z,48.17
2018-03-02T01:04:08.468Z,48.22
2018-03-02T01:05:08.463Z,48.27
2018-03-02T01:06:08.462Z,48.35
2018-03-02T01:07:08.486Z,48.29
2018-03-02T01:08:08.472Z,48.35
2018-03-02T01:09:08.480Z,48.4
2018-03-02T01:10:08.475Z,48.49
2018-03-02T01:11:08.482Z,48.46
2018-03-02T01:12:08.505Z,48.47
2018-03-02T01:13:08.487Z,48.44
2018-03-02T01:14:08.498Z,48.44
2018-03-02T01:15:08.499Z,48.41
2018-03-02T01:16:08.503Z,48.54
2018-03-02T01:17:08.510Z,48.49
2018-03-02T01:18:08.523Z,48.45
2018-03-02T01:19:08.498Z,48.6
2018-03-02T01:20:08.501Z,48.63
2018-03-02T01:21:08.509Z,48.77
2018-03-02T01:22:08.515Z,48.69
2018-03-02T01:23:08.545Z,48.87
2018-03-02T01:24:08.523Z,48.81
2018-03-02T01:25:08.523Z,48.89
2018-03-02T01:26:08.531Z,49
2018-03-02T01:27:08.586Z,48.97
2018-03-02T01:28:08.531Z,48.94
2018-03-02T01:29:08.534Z,49.02
2018-03-02T01:30:08.542Z,49.07
2018-03-02T01:31:08.546Z,49.03
2018-03-02T01:32:08.568Z,49.22
2018-03-02T01:33:08.553Z,49.1
2018-03-02T01:34:08.563Z,49.28
2018-03-02T01:35:08.567Z,49.38
2018-03-02T01:36:08.836Z,49.33
2018-03-02T01:37:08.564Z,49.34
2018-03-02T01:38:08.561Z,49.21
2018-03-02T01:39:08.570Z,49.23
2018-03-02T01:40:08.575Z,49.2
2018-03-02T01:41:08.602Z,49.18
2018-03-02T01:42:08.582Z,49.2
2018-03-02T01:43:08.583Z,49.1
2018-03-02T01:44:08.585Z,49.16
2018-03-02T01:45:08.592Z,49.2
2018-03-02T01:46:08.613Z,49.31
2018-03-02T01:47:08.599Z,49.2
2018-03-02T01:48:08.601Z,49.23
2018-03-02T01:50:20.805Z,49.48
2018-03-02T01:51:08.636Z,49.53
2018-03-02T01:52:08.606Z,49.52
2018-03-02T01:53:08.608Z,49.28
2018-03-02T01:54:08.613Z,49.34
2018-03-02T01:55:08.618Z,49.31
2018-03-02T01:56:08.739Z,49.27
2018-03-02T01:57:08.624Z,49.43
2018-03-02T01:58:08.622Z,49.42
2018-03-02T01:59:08.630Z,49.36
2018-03-02T02:00:08.630Z,49.32
2018-03-02T02:01:08.655Z,49.5
2018-03-02T02:02:08.659Z,49.56
2018-03-02T02:03:08.641Z,49.6
2018-03-02T02:04:08.642Z,49.57
2018-03-02T02:05:08.648Z,49.47
2018-03-02T02:06:08.652Z,49.56
2018-03-02T02:07:08.670Z,49.56
2018-03-02T02:08:08.664Z,49.38
2018-03-02T02:09:08.948Z,49.54
2018-03-02T02:10:08.669Z,49.5
2018-03-02T02:11:08.676Z,49.41
2018-03-02T02:12:08.679Z,49.6
2018-03-02T02:13:08.685Z,49.61
2018-03-02T02:14:08.700Z,49.68
2018-03-02T02:15:08.700Z,49.73
2018-03-02T02:16:08.707Z,49.74
2018-03-02T02:18:14.857Z,49.78
2018-03-02T02:19:08.705Z,49.69
2018-03-02T02:20:08.746Z,49.75
2018-03-02T02:21:08.705Z,49.66
2018-03-02T02:22:08.712Z,49.73
2018-03-02T02:23:08.721Z,49.77
2018-03-02T02:24:08.713Z,49.89
2018-03-02T02:25:08.735Z,49.82
2018-03-02T02:26:08.720Z,49.72
2018-03-02T02:27:08.727Z,49.64
2018-03-02T02:28:08.723Z,50.01
2018-03-02T02:29:08.731Z,49.99
2018-03-02T02:30:08.729Z,50.1
2018-03-02T02:31:08.737Z,50.11
2018-03-02T02:32:08.737Z,50.04
2018-03-02T02:33:08.742Z,50.25
2018-03-02T02:34:09.012Z,50.25
2018-03-02T02:35:08.751Z,50.25
2018-03-02T02:36:08.747Z,50.15
2018-03-02T02:37:08.743Z,50.32
2018-03-02T02:38:08.749Z,50.22
2018-03-02T02:39:08.785Z,50.26
2018-03-02T02:40:08.743Z,50.34
2018-03-02T02:41:08.753Z,50.37
2018-03-02T02:42:08.757Z,50.46
2018-03-02T02:43:08.759Z,50.4
2018-03-02T02:44:08.759Z,50.56
2018-03-02T02:45:08.773Z,50.55
2018-03-02T02:46:08.796Z,50.59
2018-03-02T02:47:08.770Z,50.58
2018-03-02T02:48:08.781Z,50.54
2018-03-02T02:49:08.806Z,50.57
2018-03-02T02:50:08.787Z,50.73
2018-03-02T02:51:08.805Z,50.59
2018-03-02T02:52:08.784Z,50.82
2018-03-02T02:53:08.791Z,50.8
2018-03-02T02:54:08.797Z,50.77
2018-03-02T02:55:08.803Z,50.87
2018-03-02T02:56:08.825Z,50.85
2018-03-02T02:57:08.810Z,51.03
2018-03-02T02:58:08.815Z,51
2018-03-02T02:59:08.841Z,51.01
2018-03-02T03:00:08.819Z,50.98
2018-03-02T03:01:08.824Z,51.04
2018-03-02T03:03:08.943Z,51
2018-03-02T03:04:08.857Z,50.96
2018-03-02T03:05:08.845Z,51.06
2018-03-02T03:06:08.838Z,51.15
2018-03-02T03:07:08.850Z,51.24
2018-03-02T03:08:08.848Z,51.27
2018-03-02T03:09:08.858Z,51.28
2018-03-02T03:10:08.863Z,51.27
2018-03-02T03:11:08.861Z,51.38
2018-03-02T03:12:08.884Z,51.51
2018-03-02T03:13:08.857Z,51.47
2018-03-02T03:14:08.854Z,51.65
2018-03-02T03:15:08.854Z,51.66
2018-03-02T03:16:08.864Z,51.68
2018-03-02T03:17:09.144Z,51.68
2018-03-02T03:18:08.865Z,51.7
2018-03-02T03:20:29.946Z,51.6
2018-03-02T03:21:08.881Z,51.81
2018-03-02T03:22:08.903Z,51.8
2018-03-02T03:23:08.890Z,51.66
2018-03-02T03:24:08.891Z,51.79
2018-03-02T03:25:08.892Z,51.75
2018-03-02T03:26:08.903Z,51.73
2018-03-02T03:27:08.909Z,51.55
2018-03-02T03:28:08.900Z,51.53
2018-03-02T03:29:08.917Z,51.63
2018-03-02T03:30:08.908Z,51.65
2018-03-02T03:31:08.909Z,51.74
2018-03-02T03:32:08.918Z,51.79
2018-03-02T03:33:09.197Z,52.02
2018-03-02T03:34:08.927Z,51.91
2018-03-02T03:35:08.922Z,51.95
2018-03-02T03:36:08.930Z,51.99
2018-03-02T03:37:08.933Z,52.03
2018-03-02T03:38:09.210Z,52.05
2018-03-02T03:39:08.930Z,52.04
2018-03-02T03:40:08.925Z,51.85
2018-03-02T03:41:08.922Z,51.99
2018-03-02T03:42:09.098Z,52.04
2018-03-02T03:43:08.948Z,52.08
2018-03-02T03:44:08.933Z,52.3
2018-03-02T03:45:09.224Z,52.15
2018-03-02T03:46:08.946Z,52.34
2018-03-02T03:47:08.949Z,52.29
2018-03-02T03:48:08.956Z,52.49
2018-03-02T03:49:08.960Z,52.64
2018-03-02T03:50:09.001Z,52.6
2018-03-02T03:51:08.966Z,52.65
2018-03-02T03:52:09.100Z,52.63
2018-03-02T03:53:08.970Z,52.59
2018-03-02T03:54:08.963Z,52.54
2018-03-02T03:55:09.000Z,52.61
2018-03-02T03:56:08.979Z,52.58
2018-03-02T03:57:08.984Z,52.62
2018-03-02T03:58:08.973Z,52.62
2018-03-02T03:59:09.085Z,52.77
2018-03-02T04:00:08.993Z,52.54
2018-03-02T04:01:08.975Z,52.61
2018-03-02T04:02:08.982Z,52.65
2018-03-02T04:03:08.990Z,52.7
2018-03-02T04:04:08.998Z,52.83
2018-03-02T04:06:15.258Z,52.7
2018-03-02T04:07:08.997Z,52.62
2018-03-02T04:08:09.033Z,52.58
2018-03-02T04:09:09.005Z,52.76
2018-03-02T04:10:09.008Z,52.78
2018-03-02T04:11:09.009Z,52.81
2018-03-02T04:12:09.019Z,52.76
2018-03-02T04:13:09.029Z,52.85
2018-03-02T04:14:09.033Z,52.9
2018-03-02T04:16:09.108Z,52.88
2018-03-02T04:17:09.047Z,52.98
2018-03-02T04:18:09.048Z,53.11
2018-03-02T04:19:09.046Z,53
2018-03-02T04:20:09.050Z,52.92
2018-03-02T04:21:09.064Z,53.08
2018-03-02T04:22:09.391Z,53.09
2018-03-02T04:23:09.066Z,53.03
2018-03-02T04:24:09.066Z,53.17
2018-03-02T04:25:09.061Z,53.19
2018-03-02T04:26:09.070Z,53.18
2018-03-02T04:27:09.110Z,53.12
2018-03-02T04:28:09.086Z,53.13
2018-03-02T04:29:09.087Z,53.26
2018-03-02T04:30:09.093Z,53.21
2018-03-02T04:31:09.095Z,53.29
2018-03-02T04:32:09.119Z,53.21
2018-03-02T04:33:09.407Z,53.22
2018-03-02T04:34:09.111Z,53.24
2018-03-02T04:35:09.104Z,53.19
2018-03-02T04:36:09.108Z,53.23
2018-03-02T04:37:09.113Z,53.47
2018-03-02T04:38:09.135Z,53.61
2018-03-02T04:39:09.113Z,53.59
2018-03-02T04:40:09.116Z,53.5
2018-03-02T04:41:09.126Z,53.57
2018-03-02T04:42:09.122Z,53.74
2018-03-02T04:43:09.153Z,53.62
2018-03-02T04:45:15.316Z,53.35
2018-03-02T04:46:09.131Z,53.43
2018-03-02T04:47:09.137Z,53.41
2018-03-02T04:48:09.153Z,53.46
2018-03-02T04:49:09.135Z,53.48
2018-03-02T04:50:09.141Z,53.59
2018-03-02T04:51:09.141Z,53.61
2018-03-02T04:52:09.158Z,53.7
2018-03-02T04:53:09.138Z,53.79
2018-03-02T04:54:09.140Z,53.75
2018-03-02T04:55:09.147Z,53.92
2018-03-02T04:56:09.151Z,53.86
2018-03-02T04:57:09.168Z,53.89
2018-03-02T04:58:09.172Z,53.91
2018-03-02T04:59:09.156Z,53.9
2018-03-02T05:00:09.154Z,53.86
2018-03-02T05:01:09.158Z,53.92
2018-03-02T05:03:15.550Z,54.13
2018-03-02T05:04:09.179Z,54
2018-03-02T05:05:09.177Z,54.09
2018-03-02T05:06:09.178Z,54.05
2018-03-02T05:07:09.184Z,54.08
2018-03-02T05:08:09.182Z,54.11
2018-03-02T05:09:09.184Z,54.08
2018-03-02T05:10:09.188Z,54.11
2018-03-02T05:11:09.199Z,54.14
2018-03-02T05:12:09.362Z,54.22
2018-03-02T05:13:09.195Z,54.27
2018-03-02T05:14:09.215Z,54.33
2018-03-02T05:15:09.205Z,54.22
2018-03-02T05:16:09.207Z,54.13
2018-03-02T05:17:09.203Z,54.05
2018-03-02T05:18:09.212Z,54
2018-03-02T05:19:09.239Z,54.1
2018-03-02T05:20:09.216Z,53.83
2018-03-02T05:21:09.272Z,53.97
2018-03-02T05:22:09.226Z,53.95
2018-03-02T05:23:09.227Z,54.05
2018-03-02T05:24:09.246Z,53.95
2018-03-02T05:25:09.239Z,54.19
2018-03-02T05:26:09.492Z,54.07
2018-03-02T05:27:09.229Z,54.04
2018-03-02T05:28:09.226Z,54.01
2018-03-02T05:29:09.229Z,54.09
2018-03-02T05:30:09.240Z,53.9
2018-03-02T05:31:09.265Z,54.14
2018-03-02T05:32:09.241Z,54.11
2018-03-02T05:33:09.246Z,54.16
2018-03-02T05:34:09.253Z,54.21
2018-03-02T05:35:09.273Z,54.1
2018-03-02T05:36:09.277Z,54.28
2018-03-02T05:37:09.274Z,54.46
2018-03-02T05:38:09.263Z,54.08
2018-03-02T05:39:09.272Z,53.93
2018-03-02T05:40:09.264Z,54.21
2018-03-02T05:41:09.343Z,54.26
2018-03-02T05:42:09.304Z,54.15
2018-03-02T05:43:09.281Z,54.16
2018-03-02T05:44:09.288Z,54.2
2018-03-02T05:45:09.302Z,54.17
2018-03-02T05:46:09.295Z,54.13
2018-03-02T05:47:09.337Z,54.14
2018-03-02T05:48:09.331Z,54.17
2018-03-02T05:49:09.305Z,54.3
2018-03-02T05:50:09.296Z,54.22
2018-03-02T05:51:09.301Z,54.25
2018-03-02T05:52:09.305Z,54.34
2018-03-02T05:53:09.481Z,54.5
2018-03-02T05:54:09.310Z,54.52
2018-03-02T05:55:09.310Z,54.56
2018-03-02T05:56:09.307Z,54.48
2018-03-02T05:57:09.313Z,54.6
2018-03-02T05:59:09.375Z,54.63
2018-03-02T06:00:09.377Z,54.44
2018-03-02T06:01:09.330Z,54.45
2018-03-02T06:02:09.490Z,54.5
2018-03-02T06:03:09.334Z,54.35
2018-03-02T06:04:09.338Z,54.46
2018-03-02T06:05:09.360Z,54.6
2018-03-02T06:06:09.337Z,54.69
2018-03-02T06:07:09.378Z,54.6
2018-03-02T06:08:09.340Z,54.53
2018-03-02T06:09:09.347Z,54.62
2018-03-02T06:10:09.622Z,54.62
2018-03-02T06:11:09.354Z,54.7
2018-03-02T06:12:09.370Z,54.72
2018-03-02T06:13:09.367Z,54.8
2018-03-02T06:14:09.373Z,54.69
2018-03-02T06:15:09.391Z,54.65
2018-03-02T06:16:09.398Z,54.59
2018-03-02T06:17:09.388Z,54.73
2018-03-02T06:18:09.391Z,54.57
2018-03-02T06:19:09.411Z,54.8
2018-03-02T06:20:09.392Z,54.69
2018-03-02T06:21:09.427Z,54.7
2018-03-02T06:22:09.405Z,54.59
2018-03-02T06:23:09.401Z,54.64
2018-03-02T06:24:09.404Z,54.8
2018-03-02T06:25:09.405Z,54.73
2018-03-02T06:26:09.583Z,54.94
2018-03-02T06:27:09.409Z,54.92
2018-03-02T06:28:09.415Z,54.94
2018-03-02T06:29:09.412Z,54.96
2018-03-02T06:30:09.417Z,54.99
2018-03-02T06:31:09.438Z,54.98
2018-03-02T06:32:09.422Z,54.99
2018-03-02T06:33:09.429Z,54.99
2018-03-02T06:34:09.425Z,54.92
2018-03-02T06:35:09.428Z,54.96
2018-03-02T06:36:09.462Z,54.93
2018-03-02T06:38:09.522Z,54.95
2018-03-02T06:39:09.448Z,55.17
2018-03-02T06:40:09.476Z,54.95
2018-03-02T06:41:09.473Z,54.95
2018-03-02T06:42:09.463Z,55.2
2018-03-02T06:43:09.469Z,55.13
2018-03-02T06:44:09.480Z,55.05
2018-03-02T06:45:09.474Z,55.29
2018-03-02T06:46:09.473Z,55.04
2018-03-02T06:47:09.474Z,54.86
2018-03-02T06:48:09.483Z,55
2018-03-02T06:49:09.484Z,55
2018-03-02T06:50:09.480Z,55.04
2018-03-02T06:51:09.491Z,54.99
2018-03-02T06:52:09.513Z,55.05
2018-03-02T06:53:09.519Z,55.06
2018-03-02T06:54:09.495Z,54.98
2018-03-02T06:55:09.499Z,55.13
2018-03-02T06:56:09.507Z,55.18
2018-03-02T06:57:09.532Z,55.13
2018-03-02T06:58:09.513Z,54.96
2018-03-02T06:59:09.510Z,54.95
2018-03-02T07:00:09.517Z,55.05
2018-03-02T07:01:09.525Z,54.94
2018-03-02T07:02:09.549Z,54.97
2018-03-02T07:03:09.524Z,54.93
2018-03-02T07:04:09.532Z,54.84
2018-03-02T07:05:09.527Z,54.73
2018-03-02T07:06:09.535Z,54.89
2018-03-02T07:07:09.562Z,54.81
2018-03-02T07:08:09.562Z,54.85
2018-03-02T07:09:09.549Z,54.87
2018-03-02T07:10:09.551Z,54.75
2018-03-02T07:11:09.555Z,54.85
2018-03-02T07:12:09.571Z,55.03
2018-03-02T07:13:09.559Z,54.87
2018-03-02T07:14:09.560Z,54.9
2018-03-02T07:15:09.557Z,54.8
2018-03-02T07:16:09.560Z,54.99
2018-03-02T07:17:09.584Z,54.96
2018-03-02T07:18:09.569Z,54.82
2018-03-02T07:19:09.570Z,54.83
2018-03-02T07:20:09.593Z,54.76
2018-03-02T07:21:09.582Z,54.78
2018-03-02T07:22:09.611Z,54.79
2018-03-02T07:23:09.590Z,54.76
2018-03-02T07:24:09.598Z,54.83
2018-03-02T07:25:09.588Z,54.7
2018-03-02T07:26:09.702Z,54.82
2018-03-02T07:27:09.602Z,54.68
2018-03-02T07:28:09.593Z,54.61
2018-03-02T07:29:09.625Z,54.75
2018-03-02T07:30:09.631Z,54.63
2018-03-02T07:31:09.607Z,54.66
2018-03-02T07:32:09.617Z,54.61
2018-03-02T07:33:09.619Z,54.49
2018-03-02T07:34:09.798Z,54.84
2018-03-02T07:35:09.622Z,54.81
2018-03-02T07:36:09.629Z,54.9
2018-03-02T07:37:09.814Z,54.69
2018-03-02T07:38:09.623Z,54.6
2018-03-02T07:39:09.657Z,54.6
2018-03-02T07:40:09.635Z,54.6
2018-03-02T07:41:09.640Z,54.54
2018-03-02T07:42:09.643Z,54.48
2018-03-02T07:43:09.652Z,54.48
2018-03-02T07:44:09.676Z,54.45
2018-03-02T07:45:09.657Z,54.55
2018-03-02T07:46:09.661Z,54.74
2018-03-02T07:47:09.668Z,54.62
2018-03-02T07:48:09.671Z,54.53
2018-03-02T07:49:09.754Z,54.61
2018-03-02T07:50:09.722Z,54.56
2018-03-02T07:51:09.674Z,54.51
2018-03-02T07:52:09.676Z,54.61
2018-03-02T07:53:09.676Z,54.48
2018-03-02T07:54:09.680Z,54.5
2018-03-02T07:55:09.705Z,54.52
2018-03-02T07:56:09.722Z,54.37
2018-03-02T07:57:09.694Z,54.46
2018-03-02T07:58:09.691Z,54.48
2018-03-02T07:59:09.695Z,54.54
2018-03-02T08:00:09.705Z,54.34
2018-03-02T08:01:09.742Z,54.24
2018-03-02T08:02:09.718Z,54.31
2018-03-02T08:03:09.716Z,54.3
2018-03-02T08:04:09.718Z,54.51
2018-03-02T08:05:09.722Z,54.46
2018-03-02T08:06:09.751Z,54.37
2018-03-02T08:07:09.733Z,54.4
2018-03-02T08:08:09.733Z,54.44
2018-03-02T08:09:09.739Z,54.41
2018-03-02T08:10:09.777Z,54.39
2018-03-02T08:11:09.778Z,54.25
2018-03-02T08:12:09.755Z,54.22
2018-03-02T08:13:09.765Z,54.22
2018-03-02T08:14:09.768Z,54.25
2018-03-02T08:15:09.788Z,54.21
2018-03-02T08:16:09.831Z,54.36
2018-03-02T08:17:09.782Z,54.37
2018-03-02T08:18:09.789Z,54.36
2018-03-02T08:19:09.795Z,54.21
2018-03-02T08:20:09.795Z,54.32
2018-03-02T08:21:09.811Z,54.32
2018-03-02T08:22:09.796Z,54.44
2018-03-02T08:23:09.804Z,54.09
2018-03-02T08:24:09.810Z,54.26
2018-03-02T08:25:09.808Z,54.31
2018-03-02T08:26:09.885Z,54.36
2018-03-02T08:27:09.808Z,54.36
2018-03-02T08:28:09.810Z,54.07
2018-03-02T08:29:09.806Z,54.05
2018-03-02T08:30:09.813Z,54
2018-03-02T08:31:09.840Z,54.02
2018-03-02T08:32:09.811Z,54.06
2018-03-02T08:33:09.817Z,54.23
2018-03-02T08:34:09.821Z,53.88
2018-03-02T08:35:09.832Z,53.74
2018-03-02T08:36:09.850Z,53.55
2018-03-02T08:37:09.845Z,53.51
2018-03-02T08:38:09.840Z,53.63
2018-03-02T08:39:09.846Z,53.52
2018-03-02T08:40:09.851Z,53.37
2018-03-02T08:41:09.886Z,53.26
2018-03-02T08:42:09.864Z,53.38
2018-03-02T08:43:09.873Z,53.39
2018-03-02T08:44:09.867Z,53.19
2018-03-02T08:45:09.868Z,53.31
2018-03-02T08:46:10.141Z,53.15
2018-03-02T08:47:09.877Z,53.15
2018-03-02T08:48:09.890Z,53.04
2018-03-02T08:49:09.877Z,53.13
2018-03-02T08:50:09.881Z,53.19
2018-03-02T08:51:09.909Z,53.13
2018-03-02T08:52:09.894Z,53
2018-03-02T08:53:09.900Z,53
2018-03-02T08:54:09.907Z,53.02
2018-03-02T08:55:09.910Z,52.83
2018-03-02T08:56:09.936Z,53.02
2018-03-02T08:57:09.927Z,53.1
2018-03-02T08:58:09.933Z,53.03
2018-03-02T08:59:09.943Z,53.12
2018-03-02T09:00:10.107Z,53.03
2018-03-02T09:01:10.208Z,53.04
2018-03-02T09:02:09.944Z,52.99
2018-03-02T09:03:09.947Z,52.86
2018-03-02T09:04:09.946Z,52.76
2018-03-02T09:05:09.952Z,52.73
2018-03-02T09:06:09.991Z,52.65
2018-03-02T09:07:09.958Z,52.54
2018-03-02T09:08:09.962Z,52.54
2018-03-02T09:09:09.970Z,52.48
2018-03-02T09:10:09.975Z,52.73
2018-03-02T09:11:09.967Z,52.83
2018-03-02T09:12:09.986Z,52.77
2018-03-02T09:13:09.976Z,52.54
2018-03-02T09:14:09.983Z,52.53
2018-03-02T09:15:09.992Z,52.57
2018-03-02T09:16:10.015Z,52.58
2018-03-02T09:17:09.990Z,52.71
2018-03-02T09:18:10.000Z,52.62
2018-03-02T09:19:10.009Z,52.67
2018-03-02T09:20:10.007Z,52.51
2018-03-02T09:21:10.010Z,52.38
2018-03-02T09:22:10.029Z,52.36
2018-03-02T09:23:10.012Z,52.49
2018-03-02T09:24:10.022Z,52.51
2018-03-02T09:25:10.021Z,52.4
2018-03-02T09:26:10.022Z,52.37
2018-03-02T09:27:10.042Z,52.1
2018-03-02T09:28:10.019Z,52.2
2018-03-02T09:29:10.041Z,52.31
2018-03-02T09:30:10.103Z,52.29
2018-03-02T09:31:10.027Z,52.41
2018-03-02T09:32:10.055Z,52.32
2018-03-02T09:33:10.049Z,52.36
2018-03-02T09:34:10.034Z,52.21
2018-03-02T09:35:10.036Z,52.23
2018-03-02T09:36:10.035Z,52
2018-03-02T09:37:10.060Z,52.1
2018-03-02T09:38:10.039Z,52.13
2018-03-02T09:39:10.048Z,52.12
2018-03-02T09:40:10.045Z,52.15
2018-03-02T09:41:10.056Z,51.91
2018-03-02T09:42:10.071Z,51.86
2018-03-02T09:43:10.056Z,51.8
2018-03-02T09:44:10.066Z,52
2018-03-02T09:45:10.064Z,52.07
2018-03-02T09:46:10.064Z,52.08
2018-03-02T09:47:10.091Z,51.96
2018-03-02T09:48:10.100Z,51.83
2018-03-02T09:49:10.075Z,51.81
2018-03-02T09:50:10.080Z,51.64
2018-03-02T09:51:10.083Z,51.76
2018-03-02T09:52:10.148Z,51.73
2018-03-02T09:53:10.113Z,51.78
2018-03-02T09:54:10.100Z,51.74
2018-03-02T09:55:10.091Z,51.64
2018-03-02T09:56:10.097Z,51.72
2018-03-02T09:57:10.095Z,51.8
2018-03-02T09:58:10.283Z,51.75
2018-03-02T09:59:10.101Z,51.65
2018-03-02T10:00:10.435Z,51.68
2018-03-02T10:01:10.105Z,51.61
2018-03-02T10:02:10.113Z,51.82
2018-03-02T10:03:10.292Z,51.67
2018-03-02T10:04:10.115Z,51.86
2018-03-02T10:05:10.120Z,51.84
2018-03-02T10:06:10.125Z,51.83
2018-03-02T10:07:10.127Z,51.89
2018-03-02T10:08:10.128Z,51.81
2018-03-02T10:09:10.137Z,51.71
2018-03-02T10:10:10.140Z,51.31
2018-03-02T10:11:10.140Z,51.01
2018-03-02T10:12:10.145Z,51.07
2018-03-02T10:13:10.173Z,50.58
2018-03-02T10:14:10.168Z,50.36
2018-03-02T10:15:10.164Z,50.24
2018-03-02T10:16:10.162Z,50.14
2018-03-02T10:17:10.166Z,50.03
2018-03-02T10:18:10.222Z,50.18
2018-03-02T10:19:10.173Z,50
2018-03-02T10:20:10.176Z,49.93
2018-03-02T10:21:10.185Z,49.87
2018-03-02T10:22:10.186Z,49.77
2018-03-02T10:23:10.192Z,49.63
2018-03-02T10:24:10.217Z,49.53
2018-03-02T10:25:10.198Z,49.8
2018-03-02T10:26:10.195Z,49.73
2018-03-02T10:27:10.205Z,49.52
2018-03-02T10:28:10.210Z,49.45
2018-03-02T10:29:10.214Z,49.67
2018-03-02T10:30:10.216Z,49.47
2018-03-02T10:31:10.218Z,49.44
2018-03-02T10:32:10.221Z,49.53
2018-03-02T10:33:12.004Z,49.52
2018-03-02T10:34:10.223Z,49.35
2018-03-02T10:35:10.229Z,49.14
2018-03-02T10:36:10.233Z,49.16
2018-03-02T10:37:10.245Z,49.07
2018-03-02T10:38:10.514Z,48.95
2018-03-02T10:39:10.274Z,48.75
2018-03-02T10:40:10.252Z,48.73
2018-03-02T10:41:10.254Z,48.84
2018-03-02T10:42:10.282Z,48.6
2018-03-02T10:43:10.289Z,48.49
2018-03-02T10:44:10.268Z,48.69
2018-03-02T10:45:10.282Z,48.82
2018-03-02T10:46:10.280Z,48.6
2018-03-02T10:47:10.280Z,48.65
2018-03-02T10:48:10.301Z,48.57
2018-03-02T10:49:10.289Z,48.68
2018-03-02T10:50:10.293Z,48.75
2018-03-02T10:51:10.296Z,48.96
2018-03-02T10:52:10.299Z,48.97
2018-03-02T10:53:10.385Z,49.02
2018-03-02T10:54:10.307Z,48.74
2018-03-02T10:55:10.308Z,48.66
2018-03-02T10:56:10.345Z,48.75
2018-03-02T10:57:10.303Z,48.8
2018-03-02T10:58:10.334Z,48.65
2018-03-02T10:59:10.306Z,48.66
2018-03-02T11:00:10.314Z,48.77
2018-03-02T11:01:10.321Z,48.9
2018-03-02T11:02:10.324Z,48.79
2018-03-02T11:03:10.355Z,48.69
2018-03-02T11:04:10.327Z,48.83
2018-03-02T11:05:10.337Z,48.69
2018-03-02T11:06:10.334Z,48.86
2018-03-02T11:07:10.339Z,48.75
2018-03-02T11:08:10.562Z,48.8
2018-03-02T11:09:10.342Z,48.8
2018-03-02T11:10:10.345Z,48.89
2018-03-02T11:11:10.345Z,48.93
2018-03-02T11:12:10.346Z,48.9
2018-03-02T11:13:10.375Z,48.9
2018-03-02T11:14:10.355Z,48.77
2018-03-02T11:15:10.365Z,48.61
2018-03-02T11:16:10.369Z,48.42
2018-03-02T11:17:10.378Z,48.41
2018-03-02T11:18:10.387Z,48.38
2018-03-02T11:19:10.376Z,48.34
2018-03-02T11:20:10.382Z,48.28
2018-03-02T11:21:10.389Z,48.19
2018-03-02T11:22:10.410Z,48.12
2018-03-02T11:23:10.510Z,48.13
2018-03-02T11:24:10.400Z,47.99
2018-03-02T11:25:10.408Z,48.06
2018-03-02T11:26:10.398Z,48.14
2018-03-02T11:27:10.396Z,48.21
2018-03-02T11:28:10.429Z,47.87
2018-03-02T11:29:10.393Z,47.93
2018-03-02T11:30:10.397Z,47.78
2018-03-02T11:31:10.401Z,47.99
2018-03-02T11:32:10.399Z,47.71
2018-03-02T11:33:10.591Z,47.52
2018-03-02T11:34:10.408Z,47.59
2018-03-02T11:35:10.412Z,47.63
2018-03-02T11:36:10.418Z,47.55
2018-03-02T11:37:10.421Z,47.63
2018-03-02T11:38:10.438Z,47.57
2018-03-02T11:39:10.418Z,47.61
2018-03-02T11:40:10.423Z,47.57
2018-03-02T11:41:10.432Z,47.46
2018-03-02T11:42:10.438Z,47.58
2018-03-02T11:43:10.457Z,47.34
2018-03-02T11:44:10.450Z,47.12
2018-03-02T11:45:10.452Z,47.31
2018-03-02T11:46:10.449Z,47.38
2018-03-02T11:47:10.456Z,47.31
2018-03-02T11:48:10.485Z,47.24
2018-03-02T11:49:10.471Z,46.8
2018-03-02T11:50:10.460Z,46.9
2018-03-02T11:51:10.459Z,46.84
2018-03-02T11:52:10.461Z,46.77
2018-03-02T11:53:10.469Z,46.87
2018-03-02T11:54:10.502Z,47.14
2018-03-02T11:55:10.475Z,46.92
2018-03-02T11:56:10.479Z,46.61
2018-03-02T11:57:10.479Z,46.78
2018-03-02T11:58:10.473Z,46.92
2018-03-02T11:59:10.500Z,46.82
2018-03-02T12:00:10.509Z,46.77
2018-03-02T12:01:10.487Z,46.58
2018-03-02T12:02:10.487Z,46.46
2018-03-02T12:03:10.491Z,46.48
2018-03-02T12:04:10.492Z,46.45
2018-03-02T12:05:10.528Z,46.39
2018-03-02T12:06:10.502Z,46.34
2018-03-02T12:07:10.502Z,46.2
2018-03-02T12:08:10.509Z,46.32
2018-03-02T12:09:10.513Z,46.15
2018-03-02T12:10:10.541Z,46.19
2018-03-02T12:11:10.525Z,46
2018-03-02T12:12:10.513Z,46.01
2018-03-02T12:13:10.521Z,46.45
2018-03-02T12:14:10.527Z,46.33
2018-03-02T12:15:10.562Z,46.01
2018-03-02T12:16:10.540Z,46.07
2018-03-02T12:17:10.561Z,46.27
2018-03-02T12:18:10.538Z,46.12
2018-03-02T12:19:10.543Z,46.36
2018-03-02T12:20:10.543Z,45.98
2018-03-02T12:21:10.552Z,45.61
2018-03-02T12:22:10.569Z,45.8
2018-03-02T12:23:10.546Z,46.22
2018-03-02T12:24:10.548Z,46.1
2018-03-02T12:25:10.718Z,46.25
2018-03-02T12:26:10.551Z,45.93
2018-03-02T12:27:10.572Z,45.82
2018-03-02T12:28:10.554Z,45.98
2018-03-02T12:29:10.565Z,45.75
2018-03-02T12:30:10.675Z,45.89
2018-03-02T12:31:10.689Z,46.11
2018-03-02T12:32:10.595Z,46.1
2018-03-02T12:33:10.696Z,45.91
2018-03-02T12:34:10.601Z,45.77
2018-03-02T12:35:10.612Z,45.98
2018-03-02T12:36:10.613Z,45.55
2018-03-02T12:37:10.718Z,45.76
2018-03-02T12:38:10.620Z,45.77
2018-03-02T12:39:10.634Z,45.46
2018-03-02T12:40:10.642Z,45.66
2018-03-02T12:41:10.649Z,45.67
2018-03-02T12:42:10.652Z,45.69
2018-03-02T12:43:10.715Z,45.6
2018-03-02T12:44:10.673Z,45.57
2018-03-02T12:45:11.531Z,45.74
2018-03-02T12:46:10.688Z,45.63
2018-03-02T12:47:10.654Z,45.55
2018-03-02T12:48:10.706Z,45.44
2018-03-02T12:49:10.647Z,45.61
2018-03-02T12:50:10.635Z,45.74
2018-03-02T12:51:10.723Z,45.58
2018-03-02T12:52:10.634Z,45.47
2018-03-02T12:53:10.656Z,45.47
2018-03-02T12:54:10.641Z,45.43
2018-03-02T12:55:10.706Z,44.97
2018-03-02T12:56:10.638Z,45.48
2018-03-02T12:57:10.663Z,45.27
2018-03-02T12:58:10.665Z,45.21
2018-03-02T12:59:10.646Z,45.47
2018-03-02T13:00:10.687Z,45.44
2018-03-02T13:01:10.656Z,45.28
2018-03-02T13:02:10.665Z,45.39
2018-03-02T13:03:10.703Z,45.43
2018-03-02T13:04:10.674Z,45.35
2018-03-02T13:05:10.670Z,45.3
2018-03-02T13:06:10.683Z,45.06